sensor_id;sensor_type;location;lat;lon;timestamp;P1;durP1;ratioP1;P2;durP2;ratioP2
26486;SDS011;14425;56.136;40.360;2023-06-22T00:01:16;5.70;;;2.75;;
26486;SDS011;14425;56.136;40.360;2023-06-22T00:03:41;3.70;;;2.85;;
26486;SDS011;14425;56.136;40.360;2023-06-22T00:19:08;4.18;;;3.10;;
26486;SDS011;14425;56.136;40.360;2023-06-22T00:27:51;5.35;;;3.13;;
26486;SDS011;14425;56.136;40.360;2023-06-22T00:30:16;6.28;;;2.25;;
26486;SDS011;14425;56.136;40.360;2023-06-22T00:32:43;5.75;;;2.47;;
26486;SDS011;14425;56.136;40.360;2023-06-22T00:35:09;3.10;;;2.13;;
26486;SDS011;14425;56.136;40.360;2023-06-22T00:37:36;3.13;;;2.03;;
26486;SDS011;14425;56.136;40.360;2023-06-22T00:40:02;5.43;;;2.20;;
26486;SDS011;14425;56.136;40.360;2023-06-22T00:42:29;3.25;;;1.80;;
26486;SDS011;14425;56.136;40.360;2023-06-22T00:44:55;3.20;;;2.00;;
26486;SDS011;14425;56.136;40.360;2023-06-22T00:47:21;4.68;;;1.83;;
26486;SDS011;14425;56.136;40.360;2023-06-22T00:49:47;3.22;;;2.25;;
26486;SDS011;14425;56.136;40.360;2023-06-22T00:52:16;2.88;;;1.85;;
26486;SDS011;14425;56.136;40.360;2023-06-22T00:54:46;3.30;;;1.90;;
26486;SDS011;14425;56.136;40.360;2023-06-22T01:03:41;2.67;;;1.85;;
26486;SDS011;14425;56.136;40.360;2023-06-22T01:06:08;2.60;;;1.60;;
26486;SDS011;14425;56.136;40.360;2023-06-22T01:08:49;3.88;;;1.88;;
26486;SDS011;14425;56.136;40.360;2023-06-22T01:11:31;3.53;;;2.15;;
26486;SDS011;14425;56.136;40.360;2023-06-22T01:14:12;3.53;;;1.92;;
26486;SDS011;14425;56.136;40.360;2023-06-22T01:16:50;3.33;;;1.70;;
26486;SDS011;14425;56.136;40.360;2023-06-22T01:19:27;2.85;;;1.60;;
26486;SDS011;14425;56.136;40.360;2023-06-22T01:22:01;3.20;;;2.00;;
26486;SDS011;14425;56.136;40.360;2023-06-22T01:24:32;2.78;;;1.73;;
26486;SDS011;14425;56.136;40.360;2023-06-22T01:27:13;2.47;;;1.70;;
26486;SDS011;14425;56.136;40.360;2023-06-22T01:29:50;2.55;;;1.80;;
26486;SDS011;14425;56.136;40.360;2023-06-22T01:32:17;2.47;;;1.70;;
26486;SDS011;14425;56.136;40.360;2023-06-22T01:34:44;3.65;;;1.58;;
26486;SDS011;14425;56.136;40.360;2023-06-22T01:37:12;1.73;;;1.48;;
26486;SDS011;14425;56.136;40.360;2023-06-22T01:39:38;6.00;;;1.70;;
26486;SDS011;14425;56.136;40.360;2023-06-22T01:42:05;6.00;;;1.60;;
26486;SDS011;14425;56.136;40.360;2023-06-22T01:44:31;4.30;;;1.60;;
26486;SDS011;14425;56.136;40.360;2023-06-22T01:46:57;3.53;;;1.40;;
26486;SDS011;14425;56.136;40.360;2023-06-22T01:49:24;2.38;;;1.65;;
26486;SDS011;14425;56.136;40.360;2023-06-22T01:51:50;2.50;;;1.65;;
26486;SDS011;14425;56.136;40.360;2023-06-22T01:54:16;2.40;;;1.60;;
26486;SDS011;14425;56.136;40.360;2023-06-22T01:56:42;5.30;;;1.92;;
26486;SDS011;14425;56.136;40.360;2023-06-22T02:02:00;4.50;;;1.98;;
26486;SDS011;14425;56.136;40.360;2023-06-22T02:04:36;2.38;;;1.80;;
26486;SDS011;14425;56.136;40.360;2023-06-22T02:07:10;3.00;;;1.60;;
26486;SDS011;14425;56.136;40.360;2023-06-22T02:09:39;1.88;;;1.67;;
26486;SDS011;14425;56.136;40.360;2023-06-22T02:12:09;3.00;;;1.58;;
26486;SDS011;14425;56.136;40.360;2023-06-22T02:14:38;2.35;;;1.70;;
26486;SDS011;14425;56.136;40.360;2023-06-22T02:17:05;3.13;;;1.58;;
26486;SDS011;14425;56.136;40.360;2023-06-22T02:19:35;1.70;;;1.38;;
26486;SDS011;14425;56.136;40.360;2023-06-22T02:22:03;1.48;;;1.20;;
26486;SDS011;14425;56.136;40.360;2023-06-22T02:24:29;3.00;;;1.45;;
26486;SDS011;14425;56.136;40.360;2023-06-22T02:27:00;5.95;;;1.50;;
26486;SDS011;14425;56.136;40.360;2023-06-22T02:29:26;1.75;;;1.30;;
26486;SDS011;14425;56.136;40.360;2023-06-22T02:31:53;2.20;;;1.35;;
26486;SDS011;14425;56.136;40.360;2023-06-22T02:34:19;1.95;;;1.23;;
26486;SDS011;14425;56.136;40.360;2023-06-22T02:36:45;2.60;;;1.88;;
26486;SDS011;14425;56.136;40.360;2023-06-22T02:39:19;2.63;;;2.33;;
26486;SDS011;14425;56.136;40.360;2023-06-22T02:41:47;3.90;;;1.73;;
26486;SDS011;14425;56.136;40.360;2023-06-22T02:44:20;3.25;;;1.45;;
26486;SDS011;14425;56.136;40.360;2023-06-22T02:46:46;3.20;;;1.70;;
26486;SDS011;14425;56.136;40.360;2023-06-22T02:49:13;6.43;;;1.75;;
26486;SDS011;14425;56.136;40.360;2023-06-22T02:51:47;3.03;;;1.50;;
26486;SDS011;14425;56.136;40.360;2023-06-22T02:54:13;2.10;;;1.45;;
26486;SDS011;14425;56.136;40.360;2023-06-22T02:56:39;2.13;;;1.45;;
26486;SDS011;14425;56.136;40.360;2023-06-22T02:59:05;3.42;;;1.55;;
26486;SDS011;14425;56.136;40.360;2023-06-22T03:01:31;2.95;;;1.55;;
26486;SDS011;14425;56.136;40.360;2023-06-22T03:04:03;3.28;;;1.70;;
26486;SDS011;14425;56.136;40.360;2023-06-22T03:06:29;1.85;;;1.55;;
26486;SDS011;14425;56.136;40.360;2023-06-22T03:08:58;5.50;;;1.67;;
26486;SDS011;14425;56.136;40.360;2023-06-22T03:11:25;3.58;;;2.10;;
26486;SDS011;14425;56.136;40.360;2023-06-22T03:13:50;5.40;;;2.40;;
26486;SDS011;14425;56.136;40.360;2023-06-22T03:16:17;4.32;;;2.88;;
26486;SDS011;14425;56.136;40.360;2023-06-22T03:18:43;14.35;;;2.97;;
26486;SDS011;14425;56.136;40.360;2023-06-22T03:21:09;3.90;;;2.60;;
26486;SDS011;14425;56.136;40.360;2023-06-22T03:23:34;2.80;;;2.25;;
26486;SDS011;14425;56.136;40.360;2023-06-22T03:26:00;2.55;;;2.03;;
26486;SDS011;14425;56.136;40.360;2023-06-22T03:28:26;7.82;;;2.58;;
26486;SDS011;14425;56.136;40.360;2023-06-22T03:30:51;3.72;;;1.85;;
26486;SDS011;14425;56.136;40.360;2023-06-22T03:33:17;2.63;;;2.13;;
26486;SDS011;14425;56.136;40.360;2023-06-22T03:35:42;4.78;;;2.10;;
26486;SDS011;14425;56.136;40.360;2023-06-22T03:38:08;2.28;;;1.90;;
26486;SDS011;14425;56.136;40.360;2023-06-22T03:40:34;2.40;;;1.90;;
26486;SDS011;14425;56.136;40.360;2023-06-22T03:42:59;4.03;;;1.98;;
26486;SDS011;14425;56.136;40.360;2023-06-22T03:45:25;2.40;;;1.70;;
26486;SDS011;14425;56.136;40.360;2023-06-22T03:47:50;4.18;;;2.00;;
26486;SDS011;14425;56.136;40.360;2023-06-22T03:50:16;2.63;;;1.92;;
26486;SDS011;14425;56.136;40.360;2023-06-22T03:52:41;4.28;;;1.70;;
26486;SDS011;14425;56.136;40.360;2023-06-22T03:55:07;1.92;;;1.45;;
26486;SDS011;14425;56.136;40.360;2023-06-22T03:57:33;2.92;;;1.60;;
26486;SDS011;14425;56.136;40.360;2023-06-22T03:59:59;3.05;;;1.70;;
26486;SDS011;14425;56.136;40.360;2023-06-22T04:02:31;2.58;;;1.60;;
26486;SDS011;14425;56.136;40.360;2023-06-22T04:04:57;3.15;;;2.00;;
26486;SDS011;14425;56.136;40.360;2023-06-22T04:07:22;2.38;;;1.60;;
26486;SDS011;14425;56.136;40.360;2023-06-22T04:09:48;2.65;;;1.45;;
26486;SDS011;14425;56.136;40.360;2023-06-22T04:12:14;6.05;;;1.83;;
26486;SDS011;14425;56.136;40.360;2023-06-22T04:14:39;2.85;;;1.65;;
26486;SDS011;14425;56.136;40.360;2023-06-22T04:17:05;2.97;;;1.60;;
26486;SDS011;14425;56.136;40.360;2023-06-22T04:19:30;3.65;;;1.60;;
26486;SDS011;14425;56.136;40.360;2023-06-22T04:21:56;3.25;;;1.38;;
26486;SDS011;14425;56.136;40.360;2023-06-22T04:24:22;3.75;;;1.17;;
26486;SDS011;14425;56.136;40.360;2023-06-22T04:26:47;4.05;;;1.25;;
26486;SDS011;14425;56.136;40.360;2023-06-22T04:29:13;4.88;;;1.73;;
26486;SDS011;14425;56.136;40.360;2023-06-22T04:31:39;5.57;;;1.50;;
26486;SDS011;14425;56.136;40.360;2023-06-22T04:34:05;1.73;;;1.25;;
26486;SDS011;14425;56.136;40.360;2023-06-22T04:36:35;2.33;;;1.40;;
26486;SDS011;14425;56.136;40.360;2023-06-22T04:39:04;2.13;;;1.33;;
26486;SDS011;14425;56.136;40.360;2023-06-22T04:41:35;1.73;;;1.42;;
26486;SDS011;14425;56.136;40.360;2023-06-22T04:44:10;3.80;;;1.45;;
26486;SDS011;14425;56.136;40.360;2023-06-22T04:46:37;1.88;;;1.38;;
26486;SDS011;14425;56.136;40.360;2023-06-22T04:49:06;2.55;;;1.48;;
26486;SDS011;14425;56.136;40.360;2023-06-22T04:51:36;4.35;;;1.60;;
26486;SDS011;14425;56.136;40.360;2023-06-22T04:54:03;4.25;;;2.08;;
26486;SDS011;14425;56.136;40.360;2023-06-22T04:56:31;5.63;;;1.40;;
26486;SDS011;14425;56.136;40.360;2023-06-22T04:58:56;2.72;;;1.50;;
26486;SDS011;14425;56.136;40.360;2023-06-22T05:01:22;6.03;;;1.75;;
26486;SDS011;14425;56.136;40.360;2023-06-22T05:03:49;4.30;;;1.50;;
26486;SDS011;14425;56.136;40.360;2023-06-22T05:06:14;1.98;;;1.73;;
26486;SDS011;14425;56.136;40.360;2023-06-22T05:08:40;5.28;;;1.50;;
26486;SDS011;14425;56.136;40.360;2023-06-22T05:11:06;5.93;;;1.70;;
26486;SDS011;14425;56.136;40.360;2023-06-22T05:13:34;3.17;;;1.70;;
26486;SDS011;14425;56.136;40.360;2023-06-22T05:15:59;6.65;;;1.70;;
26486;SDS011;14425;56.136;40.360;2023-06-22T05:18:29;1.42;;;1.25;;
26486;SDS011;14425;56.136;40.360;2023-06-22T05:20:58;2.78;;;1.60;;
26486;SDS011;14425;56.136;40.360;2023-06-22T05:23:24;2.25;;;1.70;;
26486;SDS011;14425;56.136;40.360;2023-06-22T05:25:50;3.92;;;1.70;;
26486;SDS011;14425;56.136;40.360;2023-06-22T05:28:16;5.15;;;1.60;;
26486;SDS011;14425;56.136;40.360;2023-06-22T05:30:42;3.53;;;2.20;;
26486;SDS011;14425;56.136;40.360;2023-06-22T05:33:08;6.00;;;2.00;;
26486;SDS011;14425;56.136;40.360;2023-06-22T05:35:33;4.47;;;2.22;;
26486;SDS011;14425;56.136;40.360;2023-06-22T05:37:59;8.20;;;1.67;;
26486;SDS011;14425;56.136;40.360;2023-06-22T05:40:24;3.13;;;1.70;;
26486;SDS011;14425;56.136;40.360;2023-06-22T05:42:50;4.55;;;1.75;;
26486;SDS011;14425;56.136;40.360;2023-06-22T05:45:15;6.88;;;1.83;;
26486;SDS011;14425;56.136;40.360;2023-06-22T05:47:41;3.33;;;2.22;;
26486;SDS011;14425;56.136;40.360;2023-06-22T05:50:06;3.97;;;1.85;;
26486;SDS011;14425;56.136;40.360;2023-06-22T05:52:34;5.35;;;1.88;;
26486;SDS011;14425;56.136;40.360;2023-06-22T05:55:01;3.50;;;1.67;;
26486;SDS011;14425;56.136;40.360;2023-06-22T05:57:29;5.82;;;2.03;;
26486;SDS011;14425;56.136;40.360;2023-06-22T05:59:55;5.43;;;1.77;;
26486;SDS011;14425;56.136;40.360;2023-06-22T06:02:21;5.93;;;1.77;;
26486;SDS011;14425;56.136;40.360;2023-06-22T06:04:46;2.17;;;1.77;;
26486;SDS011;14425;56.136;40.360;2023-06-22T06:07:12;2.05;;;1.52;;
26486;SDS011;14425;56.136;40.360;2023-06-22T06:09:37;3.42;;;1.50;;
26486;SDS011;14425;56.136;40.360;2023-06-22T06:12:03;1.92;;;1.42;;
26486;SDS011;14425;56.136;40.360;2023-06-22T06:14:29;3.95;;;1.67;;
26486;SDS011;14425;56.136;40.360;2023-06-22T06:16:54;4.75;;;1.88;;
26486;SDS011;14425;56.136;40.360;2023-06-22T06:19:20;2.40;;;1.70;;
26486;SDS011;14425;56.136;40.360;2023-06-22T06:21:46;2.03;;;1.73;;
26486;SDS011;14425;56.136;40.360;2023-06-22T06:24:11;7.07;;;1.73;;
26486;SDS011;14425;56.136;40.360;2023-06-22T06:26:37;8.05;;;1.90;;
26486;SDS011;14425;56.136;40.360;2023-06-22T06:29:02;3.10;;;2.00;;
26486;SDS011;14425;56.136;40.360;2023-06-22T06:31:28;3.50;;;1.63;;
26486;SDS011;14425;56.136;40.360;2023-06-22T06:33:54;2.47;;;1.60;;
26486;SDS011;14425;56.136;40.360;2023-06-22T06:36:20;2.60;;;2.13;;
26486;SDS011;14425;56.136;40.360;2023-06-22T06:38:45;6.22;;;1.80;;
26486;SDS011;14425;56.136;40.360;2023-06-22T06:41:14;3.65;;;1.70;;
26486;SDS011;14425;56.136;40.360;2023-06-22T06:43:41;4.35;;;1.70;;
26486;SDS011;14425;56.136;40.360;2023-06-22T06:46:10;3.78;;;2.03;;
26486;SDS011;14425;56.136;40.360;2023-06-22T06:48:36;3.75;;;1.70;;
26486;SDS011;14425;56.136;40.360;2023-06-22T06:51:02;5.68;;;1.38;;
26486;SDS011;14425;56.136;40.360;2023-06-22T06:53:27;3.35;;;1.90;;
26486;SDS011;14425;56.136;40.360;2023-06-22T06:55:54;2.20;;;1.80;;
26486;SDS011;14425;56.136;40.360;2023-06-22T06:58:19;3.58;;;1.58;;
26486;SDS011;14425;56.136;40.360;2023-06-22T07:00:45;2.40;;;1.80;;
26486;SDS011;14425;56.136;40.360;2023-06-22T07:03:11;6.95;;;1.98;;
26486;SDS011;14425;56.136;40.360;2023-06-22T07:05:36;3.17;;;1.73;;
26486;SDS011;14425;56.136;40.360;2023-06-22T07:08:02;2.15;;;1.38;;
26486;SDS011;14425;56.136;40.360;2023-06-22T07:10:28;3.55;;;1.80;;
26486;SDS011;14425;56.136;40.360;2023-06-22T07:12:54;2.60;;;1.92;;
26486;SDS011;14425;56.136;40.360;2023-06-22T07:15:19;6.65;;;1.83;;
26486;SDS011;14425;56.136;40.360;2023-06-22T07:17:45;4.28;;;2.03;;
26486;SDS011;14425;56.136;40.360;2023-06-22T07:20:10;2.75;;;1.95;;
26486;SDS011;14425;56.136;40.360;2023-06-22T07:22:38;3.70;;;1.75;;
26486;SDS011;14425;56.136;40.360;2023-06-22T07:25:04;5.03;;;2.10;;
26486;SDS011;14425;56.136;40.360;2023-06-22T07:27:56;6.25;;;1.65;;
26486;SDS011;14425;56.136;40.360;2023-06-22T07:30:21;3.58;;;2.63;;
26486;SDS011;14425;56.136;40.360;2023-06-22T07:32:47;7.13;;;1.75;;
26486;SDS011;14425;56.136;40.360;2023-06-22T07:35:13;8.57;;;2.00;;
26486;SDS011;14425;56.136;40.360;2023-06-22T07:37:38;3.53;;;1.70;;
26486;SDS011;14425;56.136;40.360;2023-06-22T07:40:04;3.78;;;1.75;;
26486;SDS011;14425;56.136;40.360;2023-06-22T07:42:31;3.58;;;2.22;;
26486;SDS011;14425;56.136;40.360;2023-06-22T07:44:58;3.13;;;1.58;;
26486;SDS011;14425;56.136;40.360;2023-06-22T07:47:23;3.78;;;1.80;;
26486;SDS011;14425;56.136;40.360;2023-06-22T07:49:51;1.73;;;1.38;;
26486;SDS011;14425;56.136;40.360;2023-06-22T07:52:19;3.42;;;2.08;;
26486;SDS011;14425;56.136;40.360;2023-06-22T07:54:46;4.30;;;1.88;;
26486;SDS011;14425;56.136;40.360;2023-06-22T07:57:12;7.13;;;1.60;;
26486;SDS011;14425;56.136;40.360;2023-06-22T07:59:37;3.10;;;1.45;;
26486;SDS011;14425;56.136;40.360;2023-06-22T08:02:03;2.17;;;1.60;;
26486;SDS011;14425;56.136;40.360;2023-06-22T08:04:30;2.30;;;1.65;;
26486;SDS011;14425;56.136;40.360;2023-06-22T08:07:00;4.05;;;2.00;;
26486;SDS011;14425;56.136;40.360;2023-06-22T08:09:27;2.90;;;1.58;;
26486;SDS011;14425;56.136;40.360;2023-06-22T08:11:54;3.15;;;2.03;;
26486;SDS011;14425;56.136;40.360;2023-06-22T08:14:20;2.80;;;2.03;;
26486;SDS011;14425;56.136;40.360;2023-06-22T08:16:46;9.57;;;5.50;;
26486;SDS011;14425;56.136;40.360;2023-06-22T08:19:11;4.72;;;2.33;;
26486;SDS011;14425;56.136;40.360;2023-06-22T08:21:37;4.15;;;3.20;;
26486;SDS011;14425;56.136;40.360;2023-06-22T08:24:03;7.88;;;3.38;;
26486;SDS011;14425;56.136;40.360;2023-06-22T08:26:29;14.70;;;3.55;;
26486;SDS011;14425;56.136;40.360;2023-06-22T08:28:54;15.30;;;2.70;;
26486;SDS011;14425;56.136;40.360;2023-06-22T08:31:20;2.28;;;1.80;;
26486;SDS011;14425;56.136;40.360;2023-06-22T08:33:45;4.45;;;2.28;;
26486;SDS011;14425;56.136;40.360;2023-06-22T08:36:11;2.88;;;1.92;;
26486;SDS011;14425;56.136;40.360;2023-06-22T08:38:38;7.47;;;2.10;;
26486;SDS011;14425;56.136;40.360;2023-06-22T08:41:04;7.05;;;1.75;;
26486;SDS011;14425;56.136;40.360;2023-06-22T08:43:30;9.23;;;2.40;;
26486;SDS011;14425;56.136;40.360;2023-06-22T08:45:55;6.30;;;2.08;;
26486;SDS011;14425;56.136;40.360;2023-06-22T08:48:21;6.57;;;1.85;;
26486;SDS011;14425;56.136;40.360;2023-06-22T08:50:47;3.92;;;1.80;;
26486;SDS011;14425;56.136;40.360;2023-06-22T08:53:12;3.65;;;2.80;;
26486;SDS011;14425;56.136;40.360;2023-06-22T08:55:38;6.75;;;3.00;;
26486;SDS011;14425;56.136;40.360;2023-06-22T08:58:03;3.95;;;2.20;;
26486;SDS011;14425;56.136;40.360;2023-06-22T09:00:29;3.50;;;2.38;;
26486;SDS011;14425;56.136;40.360;2023-06-22T09:02:57;5.40;;;3.10;;
26486;SDS011;14425;56.136;40.360;2023-06-22T09:05:24;2.20;;;1.98;;
26486;SDS011;14425;56.136;40.360;2023-06-22T09:07:51;3.97;;;1.73;;
26486;SDS011;14425;56.136;40.360;2023-06-22T09:10:17;6.38;;;2.25;;
26486;SDS011;14425;56.136;40.360;2023-06-22T09:12:44;2.33;;;1.90;;
26486;SDS011;14425;56.136;40.360;2023-06-22T09:15:09;7.28;;;2.92;;
26486;SDS011;14425;56.136;40.360;2023-06-22T09:17:35;5.72;;;3.50;;
26486;SDS011;14425;56.136;40.360;2023-06-22T09:20:02;2.95;;;2.20;;
26486;SDS011;14425;56.136;40.360;2023-06-22T09:22:31;6.35;;;1.92;;
26486;SDS011;14425;56.136;40.360;2023-06-22T09:24:58;8.75;;;2.80;;
26486;SDS011;14425;56.136;40.360;2023-06-22T09:27:24;6.50;;;3.28;;
26486;SDS011;14425;56.136;40.360;2023-06-22T09:29:50;4.05;;;2.13;;
26486;SDS011;14425;56.136;40.360;2023-06-22T09:32:16;15.55;;;4.90;;
26486;SDS011;14425;56.136;40.360;2023-06-22T09:34:41;6.90;;;2.55;;
26486;SDS011;14425;56.136;40.360;2023-06-22T09:37:07;7.03;;;2.45;;
26486;SDS011;14425;56.136;40.360;2023-06-22T09:39:32;2.63;;;1.73;;
26486;SDS011;14425;56.136;40.360;2023-06-22T09:41:58;5.05;;;2.75;;
26486;SDS011;14425;56.136;40.360;2023-06-22T09:44:27;3.92;;;2.30;;
26486;SDS011;14425;56.136;40.360;2023-06-22T09:46:53;6.90;;;2.03;;
26486;SDS011;14425;56.136;40.360;2023-06-22T09:49:19;6.47;;;2.22;;
26486;SDS011;14425;56.136;40.360;2023-06-22T09:51:44;2.15;;;1.58;;
26486;SDS011;14425;56.136;40.360;2023-06-22T09:54:10;4.95;;;2.00;;
26486;SDS011;14425;56.136;40.360;2023-06-22T09:56:35;4.43;;;2.03;;
26486;SDS011;14425;56.136;40.360;2023-06-22T09:59:02;4.45;;;1.90;;
26486;SDS011;14425;56.136;40.360;2023-06-22T10:01:28;2.83;;;2.00;;
26486;SDS011;14425;56.136;40.360;2023-06-22T10:03:55;4.82;;;3.05;;
26486;SDS011;14425;56.136;40.360;2023-06-22T10:06:22;3.22;;;2.03;;
26486;SDS011;14425;56.136;40.360;2023-06-22T10:08:48;3.72;;;2.28;;
26486;SDS011;14425;56.136;40.360;2023-06-22T10:11:15;11.05;;;4.32;;
26486;SDS011;14425;56.136;40.360;2023-06-22T10:13:40;5.90;;;2.70;;
26486;SDS011;14425;56.136;40.360;2023-06-22T10:16:06;4.45;;;2.47;;
26486;SDS011;14425;56.136;40.360;2023-06-22T10:18:32;6.90;;;2.55;;
26486;SDS011;14425;56.136;40.360;2023-06-22T10:20:57;4.25;;;2.33;;
26486;SDS011;14425;56.136;40.360;2023-06-22T10:23:24;13.00;;;3.47;;
26486;SDS011;14425;56.136;40.360;2023-06-22T10:25:50;6.63;;;2.35;;
26486;SDS011;14425;56.136;40.360;2023-06-22T10:28:15;4.75;;;2.28;;
26486;SDS011;14425;56.136;40.360;2023-06-22T10:30:41;5.15;;;2.70;;
26486;SDS011;14425;56.136;40.360;2023-06-22T10:33:08;4.70;;;2.03;;
26486;SDS011;14425;56.136;40.360;2023-06-22T10:35:34;4.38;;;2.75;;
26486;SDS011;14425;56.136;40.360;2023-06-22T10:38:02;7.10;;;2.80;;
26486;SDS011;14425;56.136;40.360;2023-06-22T10:40:28;4.65;;;2.40;;
26486;SDS011;14425;56.136;40.360;2023-06-22T10:42:54;2.80;;;2.42;;
26486;SDS011;14425;56.136;40.360;2023-06-22T10:45:19;2.85;;;2.60;;
26486;SDS011;14425;56.136;40.360;2023-06-22T10:47:45;7.70;;;3.05;;
26486;SDS011;14425;56.136;40.360;2023-06-22T10:50:11;3.47;;;2.35;;
26486;SDS011;14425;56.136;40.360;2023-06-22T10:52:37;4.85;;;2.80;;
26486;SDS011;14425;56.136;40.360;2023-06-22T10:55:02;5.47;;;2.55;;
26486;SDS011;14425;56.136;40.360;2023-06-22T10:57:30;3.05;;;2.40;;
26486;SDS011;14425;56.136;40.360;2023-06-22T10:59:56;5.13;;;2.38;;
26486;SDS011;14425;56.136;40.360;2023-06-22T11:02:23;5.45;;;2.38;;
26486;SDS011;14425;56.136;40.360;2023-06-22T11:04:50;4.95;;;3.00;;
26486;SDS011;14425;56.136;40.360;2023-06-22T11:07:16;3.05;;;2.17;;
26486;SDS011;14425;56.136;40.360;2023-06-22T11:09:44;3.28;;;2.40;;
26486;SDS011;14425;56.136;40.360;2023-06-22T11:12:10;5.10;;;2.60;;
26486;SDS011;14425;56.136;40.360;2023-06-22T11:14:35;4.47;;;2.33;;
26486;SDS011;14425;56.136;40.360;2023-06-22T11:17:01;5.20;;;2.40;;
26486;SDS011;14425;56.136;40.360;2023-06-22T11:19:27;3.83;;;2.25;;
26486;SDS011;14425;56.136;40.360;2023-06-22T11:21:52;6.22;;;2.40;;
26486;SDS011;14425;56.136;40.360;2023-06-22T11:24:18;2.85;;;2.22;;
26486;SDS011;14425;56.136;40.360;2023-06-22T11:26:44;5.38;;;2.90;;
26486;SDS011;14425;56.136;40.360;2023-06-22T11:29:09;2.40;;;2.20;;
26486;SDS011;14425;56.136;40.360;2023-06-22T11:31:35;5.13;;;2.33;;
26486;SDS011;14425;56.136;40.360;2023-06-22T11:34:01;7.07;;;2.65;;
26486;SDS011;14425;56.136;40.360;2023-06-22T11:36:27;4.03;;;2.75;;
26486;SDS011;14425;56.136;40.360;2023-06-22T11:38:54;5.43;;;2.45;;
26486;SDS011;14425;56.136;40.360;2023-06-22T11:41:20;8.57;;;2.40;;
26486;SDS011;14425;56.136;40.360;2023-06-22T11:43:46;2.45;;;2.22;;
26486;SDS011;14425;56.136;40.360;2023-06-22T11:46:11;4.35;;;2.28;;
26486;SDS011;14425;56.136;40.360;2023-06-22T11:48:37;6.60;;;2.53;;
26486;SDS011;14425;56.136;40.360;2023-06-22T11:51:03;4.70;;;2.08;;
26486;SDS011;14425;56.136;40.360;2023-06-22T11:53:29;4.35;;;2.42;;
26486;SDS011;14425;56.136;40.360;2023-06-22T11:55:55;2.40;;;2.20;;
26486;SDS011;14425;56.136;40.360;2023-06-22T11:58:21;4.13;;;3.00;;
26486;SDS011;14425;56.136;40.360;2023-06-22T12:00:47;5.28;;;2.33;;
26486;SDS011;14425;56.136;40.360;2023-06-22T12:03:12;8.90;;;2.85;;
26486;SDS011;14425;56.136;40.360;2023-06-22T12:05:40;3.70;;;2.17;;
26486;SDS011;14425;56.136;40.360;2023-06-22T12:08:06;7.45;;;3.40;;
26486;SDS011;14425;56.136;40.360;2023-06-22T12:10:31;6.20;;;3.83;;
26486;SDS011;14425;56.136;40.360;2023-06-22T12:12:57;4.63;;;3.67;;
26486;SDS011;14425;56.136;40.360;2023-06-22T12:15:25;6.43;;;2.83;;
26486;SDS011;14425;56.136;40.360;2023-06-22T12:17:51;7.47;;;3.70;;
26486;SDS011;14425;56.136;40.360;2023-06-22T12:20:17;5.55;;;2.78;;
26486;SDS011;14425;56.136;40.360;2023-06-22T12:22:44;7.97;;;3.80;;
26486;SDS011;14425;56.136;40.360;2023-06-22T12:25:10;4.75;;;2.65;;
26486;SDS011;14425;56.136;40.360;2023-06-22T12:27:36;5.40;;;3.55;;
26486;SDS011;14425;56.136;40.360;2023-06-22T12:30:02;6.18;;;3.00;;
26486;SDS011;14425;56.136;40.360;2023-06-22T12:32:32;3.85;;;3.00;;
26486;SDS011;14425;56.136;40.360;2023-06-22T12:34:57;3.53;;;2.88;;
26486;SDS011;14425;56.136;40.360;2023-06-22T12:37:23;9.45;;;3.20;;
26486;SDS011;14425;56.136;40.360;2023-06-22T12:39:49;9.98;;;3.97;;
26486;SDS011;14425;56.136;40.360;2023-06-22T12:42:15;23.38;;;4.60;;
26486;SDS011;14425;56.136;40.360;2023-06-22T12:44:41;15.05;;;4.18;;
26486;SDS011;14425;56.136;40.360;2023-06-22T12:47:07;17.30;;;3.75;;
26486;SDS011;14425;56.136;40.360;2023-06-22T12:49:36;16.08;;;3.88;;
26486;SDS011;14425;56.136;40.360;2023-06-22T12:52:02;13.60;;;3.95;;
26486;SDS011;14425;56.136;40.360;2023-06-22T12:54:29;3.80;;;3.05;;
26486;SDS011;14425;56.136;40.360;2023-06-22T12:56:55;3.47;;;2.47;;
26486;SDS011;14425;56.136;40.360;2023-06-22T12:59:21;8.95;;;3.38;;
26486;SDS011;14425;56.136;40.360;2023-06-22T13:01:47;7.13;;;3.88;;
26486;SDS011;14425;56.136;40.360;2023-06-22T13:04:12;6.78;;;3.58;;
26486;SDS011;14425;56.136;40.360;2023-06-22T13:06:43;7.43;;;4.22;;
26486;SDS011;14425;56.136;40.360;2023-06-22T13:09:12;8.75;;;3.47;;
26486;SDS011;14425;56.136;40.360;2023-06-22T13:11:39;3.95;;;3.05;;
26486;SDS011;14425;56.136;40.360;2023-06-22T13:14:04;7.63;;;2.90;;
26486;SDS011;14425;56.136;40.360;2023-06-22T13:16:30;6.15;;;3.13;;
26486;SDS011;14425;56.136;40.360;2023-06-22T13:18:56;7.18;;;3.00;;
26486;SDS011;14425;56.136;40.360;2023-06-22T13:21:21;8.45;;;2.78;;
26486;SDS011;14425;56.136;40.360;2023-06-22T13:23:47;8.85;;;3.22;;
26486;SDS011;14425;56.136;40.360;2023-06-22T13:26:12;5.97;;;3.28;;
26486;SDS011;14425;56.136;40.360;2023-06-22T13:28:38;6.35;;;3.15;;
26486;SDS011;14425;56.136;40.360;2023-06-22T13:31:04;4.60;;;3.13;;
26486;SDS011;14425;56.136;40.360;2023-06-22T13:33:29;5.65;;;3.25;;
26486;SDS011;14425;56.136;40.360;2023-06-22T13:35:55;3.88;;;3.30;;
26486;SDS011;14425;56.136;40.360;2023-06-22T13:38:21;5.38;;;3.38;;
26486;SDS011;14425;56.136;40.360;2023-06-22T13:40:47;8.23;;;3.20;;
26486;SDS011;14425;56.136;40.360;2023-06-22T13:43:13;7.70;;;3.42;;
26486;SDS011;14425;56.136;40.360;2023-06-22T13:45:40;5.93;;;3.47;;
26486;SDS011;14425;56.136;40.360;2023-06-22T13:48:07;6.90;;;3.13;;
26486;SDS011;14425;56.136;40.360;2023-06-22T13:50:33;8.65;;;3.20;;
26486;SDS011;14425;56.136;40.360;2023-06-22T13:52:58;3.88;;;3.05;;
26486;SDS011;14425;56.136;40.360;2023-06-22T13:55:24;6.30;;;3.58;;
26486;SDS011;14425;56.136;40.360;2023-06-22T13:57:49;4.82;;;3.30;;
26486;SDS011;14425;56.136;40.360;2023-06-22T14:00:16;7.43;;;3.67;;
26486;SDS011;14425;56.136;40.360;2023-06-22T14:02:42;4.38;;;3.50;;
26486;SDS011;14425;56.136;40.360;2023-06-22T14:05:08;7.70;;;5.25;;
26486;SDS011;14425;56.136;40.360;2023-06-22T14:07:34;3.55;;;2.88;;
26486;SDS011;14425;56.136;40.360;2023-06-22T14:09:59;4.85;;;3.25;;
26486;SDS011;14425;56.136;40.360;2023-06-22T14:12:25;4.22;;;3.30;;
26486;SDS011;14425;56.136;40.360;2023-06-22T14:14:51;4.45;;;3.20;;
26486;SDS011;14425;56.136;40.360;2023-06-22T14:17:17;6.80;;;2.95;;
26486;SDS011;14425;56.136;40.360;2023-06-22T14:22:14;4.68;;;3.08;;
26486;SDS011;14425;56.136;40.360;2023-06-22T14:24:39;5.65;;;2.72;;
26486;SDS011;14425;56.136;40.360;2023-06-22T14:27:05;6.18;;;4.22;;
26486;SDS011;14425;56.136;40.360;2023-06-22T14:29:34;7.03;;;3.22;;
26486;SDS011;14425;56.136;40.360;2023-06-22T14:32:00;3.15;;;2.85;;
26486;SDS011;14425;56.136;40.360;2023-06-22T14:34:25;4.28;;;3.58;;
26486;SDS011;14425;56.136;40.360;2023-06-22T14:36:51;3.38;;;2.85;;
26486;SDS011;14425;56.136;40.360;2023-06-22T14:39:16;3.13;;;2.78;;
26486;SDS011;14425;56.136;40.360;2023-06-22T14:41:42;4.43;;;3.03;;
26486;SDS011;14425;56.136;40.360;2023-06-22T14:44:07;6.85;;;3.53;;
26486;SDS011;14425;56.136;40.360;2023-06-22T14:46:33;3.08;;;2.70;;
26486;SDS011;14425;56.136;40.360;2023-06-22T14:48:59;5.53;;;2.83;;
26486;SDS011;14425;56.136;40.360;2023-06-22T14:51:24;4.97;;;3.03;;
26486;SDS011;14425;56.136;40.360;2023-06-22T14:53:50;6.40;;;2.80;;
26486;SDS011;14425;56.136;40.360;2023-06-22T14:56:15;3.50;;;2.80;;
26486;SDS011;14425;56.136;40.360;2023-06-22T14:58:41;4.18;;;2.80;;
26486;SDS011;14425;56.136;40.360;2023-06-22T15:01:11;3.55;;;3.08;;